createdAt,value
2023-04-18T00:01:25.004Z,34.25
2023-04-18T00:03:45.893Z,36.33
2023-04-18T00:05:50.356Z,36.05
2023-04-18T00:07:54.558Z,36.15
2023-04-18T00:10:14.795Z,36.63
2023-04-18T00:12:21.531Z,35.90
2023-04-18T00:14:24.694Z,36.85
2023-04-18T00:16:29.309Z,36.17
2023-04-18T00:18:31.151Z,35.38
2023-04-18T00:20:34.257Z,35.65
2023-04-18T00:22:42.838Z,36.05
2023-04-18T00:24:44.453Z,33.60
2023-04-18T00:26:53.249Z,31.50
2023-04-18T00:28:58.526Z,32.63
2023-04-18T00:31:20.353Z,31.85
2023-04-18T00:33:25.070Z,31.75
2023-04-18T00:35:27.011Z,32.63
2023-04-18T00:37:30.248Z,31.45
2023-04-18T00:39:32.212Z,31.00
2023-04-18T00:41:33.652Z,29.73
2023-04-18T00:43:35.165Z,29.58
2023-04-18T00:45:39.902Z,29.75
2023-04-18T00:47:41.390Z,28.95
2023-04-18T00:49:46.137Z,26.92
2023-04-18T00:51:47.968Z,27.60
2023-04-18T00:53:53.197Z,27.55
2023-04-18T00:55:55.218Z,29.38
2023-04-18T00:58:15.160Z,28.75
2023-04-18T01:00:16.751Z,29.67
2023-04-18T01:02:23.625Z,28.50
2023-04-18T01:04:25.208Z,28.35
2023-04-18T01:06:27.370Z,28.02
2023-04-18T01:08:28.906Z,28.13
2023-04-18T01:10:30.591Z,25.83
2023-04-18T01:12:34.738Z,26.25
2023-04-18T01:14:42.798Z,27.15
2023-04-18T01:16:48.373Z,27.33
2023-04-18T01:18:56.252Z,26.00
2023-04-18T01:20:59.944Z,27.65
2023-04-18T01:23:01.538Z,27.42
2023-04-18T01:25:09.060Z,27.40
2023-04-18T01:27:14.104Z,25.77
2023-04-18T01:29:15.717Z,26.73
2023-04-18T01:31:17.298Z,26.00
2023-04-18T01:33:18.797Z,26.95
2023-04-18T01:35:23.165Z,28.95
2023-04-18T01:39:31.484Z,25.95
2023-04-18T01:41:33.157Z,24.33
2023-04-18T01:43:37.252Z,24.73
2023-04-18T01:45:41.561Z,27.60
2023-04-18T01:47:43.646Z,27.55
2023-04-18T01:50:05.314Z,27.90
2023-04-18T01:52:27.764Z,29.13
2023-04-18T01:54:29.615Z,28.88
2023-04-18T01:56:31.038Z,30.75
2023-04-18T01:58:37.121Z,31.63
2023-04-18T02:00:41.821Z,29.70
2023-04-18T02:02:46.529Z,29.85
2023-04-18T02:04:48.097Z,31.52
2023-04-18T02:06:49.589Z,30.55
2023-04-18T02:08:57.060Z,33.80
2023-04-18T02:11:02.018Z,32.10
2023-04-18T02:13:03.528Z,30.88
2023-04-18T02:15:08.071Z,31.45
2023-04-18T02:17:12.212Z,32.92
2023-04-18T02:19:13.641Z,32.40
2023-04-18T02:21:17.745Z,33.38
2023-04-18T02:23:25.206Z,33.72
2023-04-18T02:25:45.293Z,32.13
2023-04-18T02:27:46.723Z,33.20
2023-04-18T02:29:50.750Z,33.53
2023-04-18T02:31:53.786Z,32.35
2023-04-18T02:33:55.927Z,34.53
2023-04-18T02:38:03.557Z,32.70
2023-04-18T02:40:08.870Z,32.70
2023-04-18T02:42:10.290Z,32.17
2023-04-18T02:44:11.848Z,34.08
2023-04-18T02:46:16.558Z,31.20
2023-04-18T02:48:18.097Z,34.25
2023-04-18T02:50:22.878Z,34.63
2023-04-18T02:54:31.028Z,32.47
2023-04-18T02:56:39.907Z,35.10
2023-04-18T02:58:44.120Z,32.22
2023-04-18T03:00:49.940Z,33.45
2023-04-18T03:02:53.133Z,31.70
2023-04-18T03:04:57.617Z,34.00
2023-04-18T03:07:06.592Z,32.05
2023-04-18T03:09:08.118Z,34.85
2023-04-18T03:11:28.357Z,31.70
2023-04-18T03:13:32.731Z,31.80
2023-04-18T03:15:36.558Z,33.50
2023-04-18T03:17:43.538Z,34.45
2023-04-18T03:19:47.418Z,33.60
2023-04-18T03:21:57.074Z,33.67
2023-04-18T03:24:01.623Z,33.45
2023-04-18T03:26:09.089Z,33.60
2023-04-18T03:28:15.678Z,35.10
2023-04-18T03:30:19.710Z,35.58
2023-04-18T03:32:27.140Z,32.72
2023-04-18T03:34:33.810Z,32.80
2023-04-18T03:36:37.833Z,32.90
2023-04-18T03:38:44.801Z,34.40
2023-04-18T03:40:48.601Z,36.20
2023-04-18T03:42:55.092Z,36.30
2023-04-18T03:44:59.052Z,37.95
2023-04-18T03:47:05.457Z,37.50
2023-04-18T03:49:11.899Z,35.23
2023-04-18T03:51:15.866Z,38.33
2023-04-18T03:53:19.415Z,34.95
2023-04-18T03:55:26.489Z,37.60
2023-04-18T03:59:32.412Z,36.20
2023-04-18T04:01:37.190Z,37.90
2023-04-18T04:03:41.503Z,33.70
2023-04-18T04:05:43.161Z,37.13
2023-04-18T04:10:07.697Z,32.90
2023-04-18T04:12:09.096Z,32.95
2023-04-18T04:16:15.325Z,37.07
2023-04-18T04:18:16.934Z,33.65
2023-04-18T04:20:24.686Z,35.27
2023-04-18T04:22:44.969Z,34.93
2023-04-18T04:24:46.741Z,34.30
2023-04-18T04:27:07.031Z,35.85
2023-04-18T04:29:11.014Z,33.23
2023-04-18T04:31:12.496Z,35.25
2023-04-18T04:33:13.860Z,32.00
2023-04-18T04:35:15.486Z,33.45
2023-04-18T04:37:19.701Z,32.15
2023-04-18T04:39:21.244Z,33.70
2023-04-18T04:41:25.709Z,31.33
2023-04-18T04:43:28.739Z,31.35
2023-04-18T04:45:30.245Z,29.75
2023-04-18T04:47:31.747Z,29.67
2023-04-18T04:49:36.187Z,31.70
2023-04-18T04:51:37.884Z,33.05
2023-04-18T04:53:42.419Z,31.35
2023-04-18T04:55:46.916Z,32.13
2023-04-18T04:59:52.230Z,29.50
2023-04-18T05:01:57.437Z,31.77
2023-04-18T05:04:01.903Z,31.23
2023-04-18T05:06:06.169Z,31.38
2023-04-18T05:08:07.809Z,30.45
2023-04-18T05:10:11.995Z,29.80
2023-04-18T05:12:13.433Z,30.30
2023-04-18T05:14:17.853Z,31.02
2023-04-18T05:18:23.343Z,28.67
2023-04-18T05:20:24.781Z,31.50
2023-04-18T05:22:45.006Z,32.10
2023-04-18T05:24:46.978Z,30.80
2023-04-18T05:26:51.211Z,31.80
2023-04-18T05:31:02.362Z,30.17
2023-04-18T05:33:07.060Z,29.17
2023-04-18T05:35:11.758Z,32.08
2023-04-18T05:37:13.240Z,29.20
2023-04-18T05:39:14.673Z,30.20
2023-04-18T05:41:21.871Z,31.55
2023-04-18T05:43:23.415Z,28.95
2023-04-18T05:45:24.989Z,28.48
2023-04-18T05:47:30.347Z,28.80
2023-04-18T05:49:32.253Z,27.75
2023-04-18T05:51:36.313Z,27.63
2023-04-18T05:53:37.866Z,27.60
2023-04-18T05:55:41.107Z,26.92
2023-04-18T05:57:45.694Z,25.70
2023-04-18T05:59:50.048Z,27.25
2023-04-18T06:01:54.422Z,26.43
2023-04-18T06:03:58.896Z,25.83
2023-04-18T06:06:00.564Z,25.90
2023-04-18T06:08:20.711Z,24.98
2023-04-18T06:10:24.779Z,23.30
2023-04-18T06:12:26.322Z,24.10
2023-04-18T06:14:28.310Z,21.80
2023-04-18T06:16:29.761Z,23.23
2023-04-18T06:18:49.973Z,23.20
2023-04-18T06:20:57.204Z,22.65
2023-04-18T06:23:06.919Z,21.13
2023-04-18T06:25:17.172Z,22.30
2023-04-18T06:27:31.223Z,22.80
2023-04-18T06:29:37.910Z,24.02
2023-04-18T06:31:43.325Z,22.70
2023-04-18T06:33:47.229Z,22.47
2023-04-18T06:35:54.371Z,21.35
2023-04-18T06:38:01.372Z,21.55
2023-04-18T06:40:05.836Z,21.58
2023-04-18T06:42:09.825Z,22.88
2023-04-18T06:44:13.896Z,19.67
2023-04-18T06:46:20.744Z,19.40
2023-04-18T06:48:24.850Z,18.80
2023-04-18T06:50:31.618Z,17.85
2023-04-18T06:52:45.436Z,18.42
2023-04-18T06:54:51.846Z,16.92
2023-04-18T06:56:55.531Z,18.60
2023-04-18T06:58:57.458Z,15.10
2023-04-18T07:00:59.091Z,15.07
2023-04-18T07:03:02.160Z,15.38
2023-04-18T07:05:03.907Z,15.75
2023-04-18T07:07:08.051Z,15.68
2023-04-18T07:09:09.646Z,16.23
2023-04-18T07:11:13.145Z,13.98
2023-04-18T07:13:17.428Z,15.73
2023-04-18T07:15:18.822Z,14.05
2023-04-18T07:17:22.979Z,14.02
2023-04-18T07:19:24.448Z,13.75
2023-04-18T07:21:28.761Z,13.77
2023-04-18T07:23:30.258Z,13.25
2023-04-18T07:25:34.705Z,13.13
2023-04-18T07:27:39.255Z,14.43
2023-04-18T07:29:46.403Z,13.52
2023-04-18T07:31:50.970Z,13.77
2023-04-18T07:33:55.232Z,13.77
2023-04-18T07:36:01.230Z,13.15
2023-04-18T07:38:02.724Z,14.27
2023-04-18T07:40:10.409Z,13.40
2023-04-18T07:42:14.768Z,13.65
2023-04-18T07:44:22.445Z,12.60
2023-04-18T07:46:42.663Z,11.98
2023-04-18T07:48:47.237Z,12.82
2023-04-18T07:50:49.307Z,12.88
2023-04-18T07:52:50.732Z,12.80
2023-04-18T07:54:54.986Z,12.63
2023-04-18T07:56:56.825Z,10.75
2023-04-18T07:58:58.354Z,11.43
2023-04-18T08:00:59.866Z,11.20
2023-04-18T08:03:01.635Z,11.20
2023-04-18T08:05:21.642Z,11.07
2023-04-18T08:07:25.887Z,10.38
2023-04-18T08:09:27.524Z,11.63
2023-04-18T08:11:28.935Z,11.18
2023-04-18T08:13:30.590Z,12.45
2023-04-18T08:15:37.870Z,10.60
2023-04-18T08:17:39.356Z,11.23
2023-04-18T08:19:45.076Z,11.93
2023-04-18T08:22:10.187Z,11.15
2023-04-18T08:24:14.167Z,10.73
2023-04-18T08:26:15.660Z,10.93
2023-04-18T08:28:19.904Z,11.23
2023-04-18T08:30:24.122Z,10.70
2023-04-18T08:32:28.258Z,11.77
2023-04-18T08:34:38.490Z,12.10
2023-04-18T08:36:42.556Z,12.10
2023-04-18T08:38:47.902Z,11.40
2023-04-18T08:40:52.149Z,11.80
2023-04-18T08:42:54.335Z,13.40
2023-04-18T08:44:56.051Z,12.77
2023-04-18T08:47:01.561Z,12.68
2023-04-18T08:49:04.609Z,14.40
2023-04-18T08:51:24.638Z,12.50
2023-04-18T08:53:26.835Z,12.65
2023-04-18T08:55:50.503Z,12.23
2023-04-18T08:57:55.494Z,13.20
2023-04-18T09:00:07.998Z,12.77
2023-04-18T09:02:10.222Z,12.43
2023-04-18T09:04:13.953Z,12.30
2023-04-18T09:06:18.882Z,12.50
2023-04-18T09:08:26.280Z,13.32
2023-04-18T09:10:30.943Z,12.80
2023-04-18T09:12:42.325Z,13.35
2023-04-18T09:14:48.568Z,12.57
2023-04-18T09:16:53.398Z,11.60
2023-04-18T09:19:13.118Z,12.98
2023-04-18T09:21:21.311Z,12.20
2023-04-18T09:23:24.490Z,11.02
2023-04-18T09:27:34.395Z,12.63
2023-04-18T09:29:49.348Z,12.52
2023-04-18T09:32:08.118Z,13.40
2023-04-18T09:34:35.137Z,11.48
2023-04-18T09:39:03.146Z,11.50
2023-04-18T09:41:36.590Z,13.45
2023-04-18T09:43:52.422Z,11.85
2023-04-18T09:46:16.416Z,10.65
2023-04-18T09:48:31.331Z,11.30
2023-04-18T09:50:51.767Z,12.05
2023-04-18T09:53:09.775Z,10.93
2023-04-18T09:55:24.314Z,11.05
2023-04-18T09:57:37.695Z,12.52
2023-04-18T10:00:02.907Z,11.40
2023-04-18T10:02:22.950Z,11.70
2023-04-18T10:04:53.734Z,12.10
2023-04-18T10:07:21.472Z,11.52
2023-04-18T10:09:24.815Z,10.95
2023-04-18T10:11:30.780Z,10.20
2023-04-18T10:13:36.108Z,9.93
2023-04-18T10:15:43.608Z,9.85
2023-04-18T10:18:04.608Z,9.52
2023-04-18T10:20:08.407Z,10.18
2023-04-18T10:22:11.622Z,10.90
2023-04-18T10:24:53.440Z,10.48
2023-04-18T10:26:58.047Z,10.00
2023-04-18T10:29:00.823Z,10.35
2023-04-18T10:31:05.669Z,8.70
2023-04-18T10:33:30.406Z,9.10
2023-04-18T10:36:01.710Z,8.82
2023-04-18T10:38:03.133Z,8.68
2023-04-18T10:40:07.541Z,8.90
2023-04-18T10:42:12.038Z,8.32
2023-04-18T10:44:31.891Z,9.23
2023-04-18T10:46:51.962Z,7.45
2023-04-18T10:49:16.422Z,8.18
2023-04-18T10:51:21.956Z,7.20
2023-04-18T10:53:23.981Z,7.68
2023-04-18T10:55:29.272Z,8.05
2023-04-18T10:57:39.928Z,8.02
2023-04-18T10:59:41.946Z,6.65
2023-04-18T11:01:46.736Z,7.93
2023-04-18T11:03:51.254Z,7.53
2023-04-18T11:06:01.131Z,7.60
2023-04-18T11:10:08.918Z,6.85
2023-04-18T11:12:10.927Z,6.73
2023-04-18T11:14:12.772Z,7.80
2023-04-18T11:16:25.537Z,7.80
2023-04-18T11:18:27.051Z,8.80
2023-04-18T11:20:29.709Z,7.53
2023-04-18T11:22:31.392Z,7.93
2023-04-18T11:24:34.087Z,7.78
2023-04-18T11:26:38.839Z,7.70
2023-04-18T11:28:41.565Z,8.32
2023-04-18T11:31:02.850Z,7.80
2023-04-18T11:33:08.396Z,7.30
2023-04-18T11:35:13.903Z,7.07
2023-04-18T11:37:15.414Z,8.57
2023-04-18T11:39:17.160Z,9.43
2023-04-18T11:41:18.653Z,7.72
2023-04-18T11:43:21.001Z,8.88
2023-04-18T11:45:25.880Z,8.23
2023-04-18T11:47:46.478Z,8.07
2023-04-18T11:49:48.021Z,8.48
2023-04-18T11:51:52.072Z,7.35
2023-04-18T11:53:53.602Z,8.02
2023-04-18T11:55:55.809Z,9.02
2023-04-18T11:57:58.021Z,7.78
2023-04-18T12:00:02.148Z,6.85
2023-04-18T12:02:23.033Z,7.20
2023-04-18T12:04:27.861Z,8.40
2023-04-18T12:06:47.673Z,7.68
2023-04-18T12:08:49.123Z,8.45
2023-04-18T12:10:54.056Z,7.00
2023-04-18T12:12:59.130Z,7.03
2023-04-18T12:15:09.156Z,6.03
2023-04-18T12:17:12.807Z,6.03
2023-04-18T12:19:25.338Z,6.72
2023-04-18T12:21:30.217Z,6.28
2023-04-18T12:23:36.090Z,6.30
2023-04-18T12:25:40.409Z,6.88
2023-04-18T12:27:52.127Z,6.18
2023-04-18T12:29:53.554Z,4.95
2023-04-18T12:31:57.681Z,5.70
2023-04-18T12:34:00.060Z,5.47
2023-04-18T12:36:05.505Z,5.30
2023-04-18T12:38:34.148Z,4.70
2023-04-18T12:40:57.780Z,5.40
2023-04-18T12:43:16.779Z,5.70
2023-04-18T12:45:35.713Z,4.95
2023-04-18T12:48:04.034Z,5.20
2023-04-18T12:50:19.192Z,5.40
2023-04-18T12:52:43.243Z,4.63
2023-04-18T12:55:05.701Z,5.03
2023-04-18T12:57:32.271Z,5.32
2023-04-18T12:59:49.449Z,4.40
2023-04-18T13:02:12.456Z,6.15
2023-04-18T13:04:32.309Z,5.35
2023-04-18T13:06:54.797Z,5.03
2023-04-18T13:09:21.292Z,4.05
2023-04-18T13:11:43.695Z,4.50
2023-04-18T13:14:09.890Z,5.32
2023-04-18T13:16:16.194Z,4.70
2023-04-18T13:18:17.693Z,4.40
2023-04-18T13:20:22.203Z,4.20
2023-04-18T13:22:28.413Z,5.40
2023-04-18T13:24:29.920Z,4.95
2023-04-18T13:26:35.601Z,4.80
2023-04-18T13:28:37.064Z,4.65
2023-04-18T13:30:38.652Z,4.45
2023-04-18T13:32:43.931Z,4.35
2023-04-18T13:34:46.269Z,4.53
2023-04-18T13:36:47.712Z,4.13
2023-04-18T13:38:50.154Z,4.07
2023-04-18T13:41:08.589Z,4.50
2023-04-18T13:43:16.190Z,4.82
2023-04-18T13:45:20.739Z,4.05
2023-04-18T13:47:24.861Z,4.63
2023-04-18T13:49:29.283Z,4.80
2023-04-18T13:51:31.658Z,4.13
2023-04-18T13:53:36.218Z,4.88
2023-04-18T13:55:37.648Z,4.85
2023-04-18T13:57:39.200Z,5.00
2023-04-18T13:59:40.826Z,5.05
2023-04-18T14:01:44.940Z,5.40
2023-04-18T14:03:47.575Z,5.80
2023-04-18T14:05:52.133Z,4.85
2023-04-18T14:08:02.285Z,5.82
2023-04-18T14:10:04.121Z,4.47
2023-04-18T14:12:06.015Z,4.28
2023-04-18T14:14:07.825Z,3.92
2023-04-18T14:16:33.355Z,3.80
2023-04-18T14:18:34.870Z,5.45
2023-04-18T14:20:39.305Z,5.10
2023-04-18T14:22:40.756Z,3.90
2023-04-18T14:24:45.150Z,4.07
2023-04-18T14:26:49.476Z,3.75
2023-04-18T14:28:53.797Z,3.83
2023-04-18T14:31:01.336Z,3.17
2023-04-18T14:33:03.889Z,3.25
2023-04-18T14:35:07.142Z,3.15
2023-04-18T14:37:27.393Z,3.28
2023-04-18T14:39:31.720Z,3.85
2023-04-18T14:41:35.839Z,3.55
2023-04-18T14:43:37.231Z,4.22
2023-04-18T14:47:45.740Z,3.55
2023-04-18T14:49:50.034Z,3.60
2023-04-18T14:51:54.332Z,3.97
2023-04-18T14:54:14.573Z,3.40
2023-04-18T14:56:16.323Z,4.10
2023-04-18T14:58:17.794Z,4.40
2023-04-18T15:00:19.566Z,3.47
2023-04-18T15:02:23.862Z,4.65
2023-04-18T15:04:43.873Z,4.30
2023-04-18T15:06:45.562Z,3.78
2023-04-18T15:08:47.256Z,4.45
2023-04-18T15:11:08.169Z,4.68
2023-04-18T15:13:12.705Z,4.40
2023-04-18T15:15:17.248Z,4.78
2023-04-18T15:17:18.804Z,4.45
2023-04-18T15:19:20.541Z,4.82
2023-04-18T15:21:41.036Z,5.03
2023-04-18T15:23:42.489Z,4.75
2023-04-18T15:25:44.446Z,4.75
2023-04-18T15:27:46.042Z,5.25
2023-04-18T15:29:47.431Z,5.38
2023-04-18T15:31:51.446Z,4.18
2023-04-18T15:33:53.303Z,4.30
2023-04-18T15:35:57.612Z,4.22
2023-04-18T15:38:01.979Z,4.10
2023-04-18T15:40:09.589Z,3.75
2023-04-18T15:42:19.713Z,4.45
2023-04-18T15:44:35.511Z,4.88
2023-04-18T15:46:50.172Z,3.78
2023-04-18T15:49:01.640Z,3.88
2023-04-18T15:51:34.984Z,4.25
2023-04-18T15:53:40.455Z,4.25
2023-04-18T15:55:47.843Z,4.03
2023-04-18T15:57:56.293Z,4.15
2023-04-18T16:00:01.706Z,4.78
2023-04-18T16:02:15.663Z,3.60
2023-04-18T16:04:21.968Z,3.28
2023-04-18T16:06:50.522Z,2.88
2023-04-18T16:08:59.211Z,2.80
2023-04-18T16:11:26.446Z,2.92
2023-04-18T16:13:33.789Z,2.88
2023-04-18T16:15:44.281Z,3.38
2023-04-18T16:17:46.151Z,3.05
2023-04-18T16:19:47.700Z,3.45
2023-04-18T16:21:49.801Z,4.03
2023-04-18T16:23:51.346Z,3.70
2023-04-18T16:25:55.580Z,3.78
2023-04-18T16:27:59.709Z,4.15
2023-04-18T16:30:01.193Z,3.78
2023-04-18T16:32:21.692Z,4.00
2023-04-18T16:34:26.124Z,3.33
2023-04-18T16:36:32.479Z,4.78
2023-04-18T16:38:33.918Z,3.83
2023-04-18T16:40:38.146Z,4.72
2023-04-18T16:42:41.024Z,4.03
2023-04-18T16:44:45.342Z,4.05
2023-04-18T16:46:49.451Z,4.43
2023-04-18T16:48:53.834Z,4.05
2023-04-18T16:50:55.516Z,3.70
2023-04-18T16:52:59.978Z,3.67
2023-04-18T16:55:20.301Z,4.63
2023-04-18T16:57:21.776Z,3.03
2023-04-18T16:59:42.130Z,3.60
2023-04-18T17:01:43.879Z,3.08
2023-04-18T17:04:04.110Z,2.85
2023-04-18T17:06:08.402Z,3.15
2023-04-18T17:08:09.899Z,4.00
2023-04-18T17:10:11.592Z,3.35
2023-04-18T17:12:14.328Z,2.53
2023-04-18T17:14:17.471Z,3.17
2023-04-18T17:16:21.661Z,4.13
2023-04-18T17:18:23.363Z,3.42
2023-04-18T17:20:43.520Z,3.30
2023-04-18T17:22:47.566Z,3.33
2023-04-18T17:24:49.018Z,2.70
2023-04-18T17:26:50.541Z,2.63
2023-04-18T17:28:54.854Z,2.92
2023-04-18T17:31:01.400Z,3.10
2023-04-18T17:33:05.841Z,3.30
2023-04-18T17:35:08.047Z,2.97
2023-04-18T17:37:12.223Z,3.17
2023-04-18T17:39:32.840Z,4.30
2023-04-18T17:41:37.907Z,3.25
2023-04-18T17:43:39.360Z,3.22
2023-04-18T17:47:45.833Z,2.97
2023-04-18T17:49:47.307Z,3.95
2023-04-18T17:51:52.023Z,3.40
2023-04-18T17:53:53.533Z,3.88
2023-04-18T17:55:59.352Z,4.47
2023-04-18T17:58:19.987Z,4.53
2023-04-18T18:00:24.886Z,4.72
2023-04-18T18:02:28.435Z,4.50
2023-04-18T18:04:32.892Z,5.07
2023-04-18T18:06:37.837Z,3.95
2023-04-18T18:08:39.886Z,5.28
2023-04-18T18:10:41.484Z,4.78
2023-04-18T18:14:47.688Z,5.20
2023-04-18T18:16:49.327Z,5.85
2023-04-18T18:18:51.069Z,5.35
2023-04-18T18:20:52.569Z,5.07
2023-04-18T18:22:59.757Z,5.80
2023-04-18T18:25:01.394Z,7.93
2023-04-18T18:27:02.920Z,7.13
2023-04-18T18:29:09.163Z,6.13
2023-04-18T18:31:13.722Z,5.50
2023-04-18T18:33:18.937Z,6.63
2023-04-18T18:35:20.829Z,6.68
2023-04-18T18:37:26.603Z,7.75
2023-04-18T18:39:30.931Z,7.35
2023-04-18T18:41:32.420Z,7.35
2023-04-18T18:43:33.966Z,8.20
2023-04-18T18:45:35.622Z,8.18
2023-04-18T18:47:40.611Z,8.77
2023-04-18T18:49:46.877Z,7.78
2023-04-18T18:51:53.812Z,7.28
2023-04-18T18:56:02.132Z,8.13
2023-04-18T18:58:04.173Z,8.80
2023-04-18T19:00:09.382Z,8.00
2023-04-18T19:02:11.602Z,7.90
2023-04-18T19:04:13.521Z,9.52
2023-04-18T19:06:18.001Z,9.43
2023-04-18T19:08:19.592Z,9.05
2023-04-18T19:10:23.944Z,9.95
2023-04-18T19:12:25.813Z,8.80
2023-04-18T19:14:29.913Z,10.07
2023-04-18T19:16:31.838Z,9.27
2023-04-18T19:18:33.512Z,9.13
2023-04-18T19:20:35.040Z,9.52
2023-04-18T19:22:39.497Z,9.98
2023-04-18T19:24:40.947Z,10.38
2023-04-18T19:26:42.527Z,10.55
2023-04-18T19:28:43.996Z,10.82
2023-04-18T19:30:46.541Z,10.52
2023-04-18T19:33:06.815Z,10.85
2023-04-18T19:35:13.197Z,10.55
2023-04-18T19:37:17.729Z,10.38
2023-04-18T19:39:22.080Z,11.32
2023-04-18T19:41:24.521Z,11.18
2023-04-18T19:43:44.486Z,11.52
2023-04-18T19:45:46.149Z,11.98
2023-04-18T19:47:47.878Z,12.98
2023-04-18T19:49:49.303Z,12.90
2023-04-18T19:51:53.696Z,12.10
2023-04-18T19:53:58.051Z,13.05
2023-04-18T19:55:59.518Z,11.85
2023-04-18T19:58:05.175Z,13.13
2023-04-18T20:00:09.028Z,11.27
2023-04-18T20:02:13.354Z,12.13
2023-04-18T20:04:15.011Z,12.10
2023-04-18T20:06:16.988Z,12.77
2023-04-18T20:08:21.431Z,12.82
2023-04-18T20:10:23.020Z,13.25
2023-04-18T20:12:24.483Z,13.45
2023-04-18T20:14:27.044Z,12.90
2023-04-18T20:16:30.383Z,13.95
2023-04-18T20:18:34.489Z,14.50
2023-04-18T20:20:38.060Z,14.60
2023-04-18T20:22:45.793Z,14.25
2023-04-18T20:24:49.684Z,14.88
2023-04-18T20:26:52.857Z,15.85
2023-04-18T20:28:56.769Z,14.60
2023-04-18T20:31:00.643Z,14.82
2023-04-18T20:33:23.145Z,14.52
2023-04-18T20:35:28.748Z,17.92
2023-04-18T20:37:37.294Z,15.48
2023-04-18T20:39:43.309Z,14.38
2023-04-18T20:42:05.831Z,15.88
2023-04-18T20:44:14.601Z,14.60
2023-04-18T20:46:18.522Z,16.73
2023-04-18T20:48:22.597Z,15.93
2023-04-18T20:50:24.550Z,15.43
2023-04-18T20:52:26.021Z,15.45
2023-04-18T20:54:30.547Z,15.00
2023-04-18T20:56:36.025Z,15.35
2023-04-18T20:58:56.057Z,14.50
2023-04-18T21:00:57.582Z,15.32
2023-04-18T21:02:59.235Z,15.75
2023-04-18T21:05:03.623Z,15.30
2023-04-18T21:07:05.232Z,13.90
2023-04-18T21:09:07.438Z,14.93
2023-04-18T21:11:08.888Z,15.45
2023-04-18T21:15:14.290Z,13.85
2023-04-18T21:17:19.033Z,14.48
2023-04-18T21:19:23.557Z,14.75
2023-04-18T21:21:43.505Z,15.82
2023-04-18T21:25:51.591Z,14.40
2023-04-18T21:27:53.032Z,15.73
2023-04-18T21:29:54.532Z,13.82
2023-04-18T21:31:58.914Z,15.88
2023-04-18T21:34:04.281Z,14.90
2023-04-18T21:36:24.884Z,15.02
2023-04-18T21:38:26.420Z,15.13
2023-04-18T21:42:35.629Z,14.40
2023-04-18T21:44:37.019Z,134.40
2023-04-18T21:46:38.493Z,14.48
2023-04-18T21:48:43.814Z,15.52
2023-04-18T21:51:05.569Z,13.57
2023-04-18T21:53:15.450Z,14.73
2023-04-18T21:55:27.457Z,13.50
2023-04-18T21:57:35.182Z,13.48
2023-04-18T21:59:41.842Z,14.13
2023-04-18T22:01:54.772Z,12.80
2023-04-18T22:04:02.689Z,13.95
2023-04-18T22:06:13.264Z,13.82
2023-04-18T22:08:21.947Z,13.30
2023-04-18T22:10:25.899Z,13.32
2023-04-18T22:12:57.462Z,13.70
2023-04-18T22:15:08.194Z,14.50
2023-04-18T22:17:24.526Z,14.18
2023-04-18T22:19:33.234Z,14.18
2023-04-18T22:21:42.511Z,13.02
2023-04-18T22:23:52.823Z,14.80
2023-04-18T22:26:06.538Z,13.48
2023-04-18T22:28:12.405Z,13.68
2023-04-18T22:30:14.249Z,12.65
2023-04-18T22:32:34.619Z,13.48
2023-04-18T22:34:38.767Z,13.90
2023-04-18T22:36:40.650Z,14.73
2023-04-18T22:38:44.853Z,12.88
2023-04-18T22:42:53.395Z,13.67
2023-04-18T22:47:02.968Z,12.27
2023-04-18T22:49:04.427Z,13.75
2023-04-18T22:51:06.198Z,15.10
2023-04-18T22:53:11.191Z,13.40
2023-04-18T22:55:16.569Z,13.93
2023-04-18T22:57:18.048Z,15.75
2023-04-18T22:59:19.718Z,13.13
2023-04-18T23:01:23.906Z,15.40
2023-04-18T23:03:28.481Z,13.07
2023-04-18T23:05:30.054Z,13.93
2023-04-18T23:07:31.821Z,14.30
2023-04-18T23:09:36.004Z,14.00
2023-04-18T23:11:37.454Z,13.90
2023-04-18T23:13:38.939Z,14.55
2023-04-18T23:15:40.542Z,14.45
2023-04-18T23:17:44.804Z,14.45
2023-04-18T23:19:49.428Z,13.70
2023-04-18T23:21:50.883Z,13.57
2023-04-18T23:23:55.246Z,15.60
2023-04-18T23:25:56.891Z,15.75
2023-04-18T23:28:04.244Z,13.48
2023-04-18T23:30:06.362Z,13.60
2023-04-18T23:32:08.172Z,14.32
2023-04-18T23:34:10.146Z,13.13
2023-04-18T23:36:14.223Z,14.15
2023-04-18T23:38:15.679Z,15.30
2023-04-18T23:40:17.226Z,15.23
2023-04-18T23:42:21.459Z,13.85
2023-04-18T23:44:41.709Z,13.40
2023-04-18T23:48:47.464Z,13.35
2023-04-18T23:50:49.671Z,14.35
2023-04-18T23:52:51.260Z,13.93
2023-04-18T23:54:52.837Z,14.65
2023-04-18T23:56:54.275Z,13.40
